메인 페이지
METAR-TAF:

METAR-TAF

공항 :

케언스, 오스트레일리아

케언스 공항

위도: 16-53S, 경도: 145-45E, 고도: 3m

현재 날씨관측

예보는 30분 전, 15:30시(UTC)에 발표되었습니다.
서남서1kt
온도 26°C
습도 89%
기압 1006 hPa
시정 10km 이상
고도 2000ft 상공 구름 조금
고도 3000ft 상공 구름 보통

METAR: YBCS 191530Z 24001KT 9999 FEW020 SCT030 26/24 Q1006 NOSIG

시각: 02:00 (16:00 UTC)

예보

예보는 4 시간 12분 전, 11:48시(UTC)에 발표되었습니다.
예보 대상 시간: 19일 12시부터 20일 12시까지 (UTC)
4kt
시정 10km 이상
고도 1800ft 상공 구름 보통
19일 2300시부터 (UTC)
북북서6kt
시정 10km 이상
고도 2200ft 상공 구름 조금
20일 0200시부터 (UTC)
10kt
시정 10km 이상
고도 2500ft 상공 구름 조금
20일 0800시부터 (UTC)
북북서6kt
시정 10km 이상
고도 2200ft 상공 구름 보통
고도 4000ft 상공 구름 많음
약한소나기
일시적
20일 10시부터 20일 12시까지 (UTC)
시정: 4000m
고도 1800ft 상공 구름 많음

TAF: YBCS 191148Z 1912/2012 28004KT 9999 SCT018 FM192300 33006KT 9999 FEW022 FM200200 01010KT 9999 FEW025 FM200800 33006KT 9999 -SHRA SCT022 BKN040 TEMPO 2010/2012 4000 RA BKN018

4,000개 이상의 공항 관측 자료 및 예보 (METAR 및 TAF 보고).

지도상에서 검색 가능한 기상관측소가 노란 점과 빨간 점으로 표시되어 있습니다.

기상관측소 명을 보려면 표시 위로 마우스를 이동하세요.

날씨 관측과 예보를 보려면 클릭하세요.

지도 변경 : 확대하려면 엑스 표시가 있는 녹색 버튼, 축소하려면 빼기 표시가 있는 녹색 버튼, 다음 페이지의 지도를 보려면 녹색 화살표를 클릭하세요.


METAR-TAF: